Welcome to Northern Hawkes Bay. New Zealand.
PWS Header
      nz Flag



Hit Counter


W3C Valid W3C Valid logo


    Wairoa

Select any of the Stations below to visit their websites.










Historic Data from Weather Underground
Select the location of interest below. Wairoa is the default. Please have patience, this Data is slow to load in.
Northern Hawkes Bay Historical Data
Daily Summary for January 22, 2017 Units:  English    Metric   Both
« Previous Day
Next Day »
Daily Weekly Monthly Yearly Custom
  High: Low: Average:
Temperature: 74.1 °F 60.8 °F 65.1 °F
Dew Point: 57.2 °F 46 °F 49.6 °F
Humidity: 85% 39% 58%
Wind Speed: 19mph 0mph 8.1mph
Wind Gust: 31.1mph - -
Wind- - WNW
Pressure: 29.8 in 29.3 in -
Precipitation: 0.01 in    
Historical Graphs
 
 
Tabular Data for January 22, 2017
Time Temperature Dew Point Pressure Wind Wind Speed Wind Gust Humidity Rainfall Rate (Hourly) solar
00:01 74.1 °F 47.7 °F 29.3 in North 10.7 mph 27.3 mph 39% 0 in 359 W/m2
00:06 73.9 °F 48.7 °F 29.3 in NNW 13 mph 27.3 mph 41% 0 in 337 W/m2
00:11 73.4 °F 49.6 °F 29.3 in North 12.1 mph 29.8 mph 43% 0 in 320 W/m2
00:16 72.5 °F 49.5 °F 29.3 in NNW 15.2 mph 29.8 mph 44% 0 in 319 W/m2
00:21 72.5 °F 49.5 °F 29.3 in NW 13 mph 24.4 mph 44% 0 in 314 W/m2
00:26 72.1 °F 50.2 °F 29.3 in NNW 13.6 mph 28.9 mph 46% 0 in 289 W/m2
00:31 71.8 °F 51.1 °F 29.3 in North 6.9 mph 28.9 mph 48% 0 in 271 W/m2
00:36 71.8 °F 49.8 °F 29.3 in North 13 mph 28.9 mph 46% 0 in 257 W/m2
00:41 71.6 °F 49.8 °F 29.3 in North 12.1 mph 28.9 mph 46% 0 in 233 W/m2
00:46 71.1 °F 50.4 °F 29.3 in NNW 9.8 mph 31.1 mph 48% 0 in 232 W/m2
00:51 70.9 °F 50.2 °F 29.3 in NNW 13 mph 31.1 mph 48% 0 in 221 W/m2
01:09 69.4 °F 51.1 °F 29.3 in North 12.1 mph 20.6 mph 52% 0 in 50 W/m2
01:14 69.1 °F 49.1 °F 29.3 in NNW 15.2 mph 27.3 mph 49% 0 in 52 W/m2
01:19 68.5 °F 49.6 °F 29.3 in NNW 15.2 mph 27.3 mph 51% 0 in 54 W/m2
01:24 68.2 °F 50.4 °F 29.3 in NW 19 mph 27.3 mph 53% 0 in 56 W/m2
01:29 68 °F 50.4 °F 29.3 in NW 13.6 mph 26.6 mph 53% 0 in 59 W/m2
01:34 68 °F 50.4 °F 29.3 in NW 10.7 mph 26.6 mph 53% 0 in 45 W/m2
01:39 67.8 °F 50.5 °F 29.3 in NW 18.3 mph 24.4 mph 54% 0 in 53 W/m2
01:44 67.6 °F 50.4 °F 29.3 in NW 15.2 mph 24.4 mph 54% 0 in 38 W/m2
01:49 67.3 °F 50.2 °F 29.3 in NW 14.5 mph 25.1 mph 54% 0 in 39 W/m2
01:54 67.1 °F 49.8 °F 29.3 in NNW 7.6 mph 25.1 mph 54% 0 in 34 W/m2
01:59 67.1 °F 49.8 °F 29.3 in NNW 8.3 mph 23.5 mph 54% 0 in 30 W/m2
02:04 67.1 °F 49.8 °F 29.3 in North 9.2 mph 22.1 mph 54% 0 in 17 W/m2
02:09 66.9 °F 49.8 °F 29.3 in North 11.4 mph 17.4 mph 54% 0 in 13 W/m2
02:25 66.9 °F 49.3 °F 29.3 in NNW 8.3 mph 27.3 mph 53% 0 in 4 W/m2
02:30 66.6 °F 49.5 °F 29.3 in North 8.3 mph 21.3 mph 54% 0 in 1 W/m2
02:35 66.6 °F 49.5 °F 29.3 in North 13 mph 22.1 mph 54% 0 in 0 W/m2
02:40 66.4 °F 49.6 °F 29.3 in NNW 10.7 mph 22.1 mph 55% 0 in 0 W/m2
02:45 66.2 °F 49.1 °F 29.4 in NNW 11.4 mph 19 mph 54% 0 in 0 W/m2
02:50 66.2 °F 49.6 °F 29.4 in NNW 13 mph 26.6 mph 55% 0 in 0 W/m2
02:55 66 °F 49.8 °F 29.3 in NNW 8.3 mph 26.6 mph 56% 0 in 0 W/m2
03:00 66.7 °F 49.6 °F 29.4 in NNW 9.8 mph 20.6 mph 54% 0 in 0 W/m2
03:05 66 °F 49.5 °F 29.4 in NNW 12.1 mph 22.8 mph 55% 0 in 0 W/m2
03:10 65.8 °F 49.3 °F 29.4 in NNW 15.9 mph 22.8 mph 55% 0 in 0 W/m2
03:15 65.8 °F 49.6 °F 29.4 in NNW 9.8 mph 22.8 mph 56% 0 in 0 W/m2
03:20 66 °F 49.8 °F 29.4 in NNW 8.3 mph 19.7 mph 56% 0 in 0 W/m2
03:25 65.7 °F 49.6 °F 29.4 in NNW 12.1 mph 22.1 mph 56% 0 in 0 W/m2
03:30 65.5 °F 48.9 °F 29.4 in NW 13.6 mph 22.8 mph 55% 0 in 0 W/m2
03:35 65.3 °F 48.7 °F 29.4 in NNW 15.2 mph 22.8 mph 55% 0 in 0 W/m2
03:40 65.8 °F 49.3 °F 29.4 in NW 13 mph 26.6 mph 55% 0 in 0 W/m2
03:45 65.3 °F 48.7 °F 29.4 in NW 13 mph 26.6 mph 55% 0 in 0 W/m2
03:50 65.1 °F 48.6 °F 29.4 in NW 8.3 mph 22.8 mph 55% 0 in 0 W/m2
04:09 64.9 °F 48.4 °F 29.4 in NW 11.4 mph 20.6 mph 55% 0 in 0 W/m2
04:14 64.8 °F 48.2 °F 29.4 in NNW 14.5 mph 21.3 mph 55% 0 in 0 W/m2
04:19 64.9 °F 48.4 °F 29.4 in NW 9.2 mph 21.3 mph 55% 0 in 0 W/m2
04:24 64.9 °F 48.4 °F 29.4 in NW 9.2 mph 18.3 mph 55% 0 in 0 W/m2
04:29 64.6 °F 48.6 °F 29.4 in NW 6 mph 18.3 mph 56% 0 in 0 W/m2
04:34 64.6 °F 48.6 °F 29.4 in NNW 6.9 mph 18.3 mph 56% 0 in 0 W/m2
04:39 64.8 °F 48.2 °F 29.4 in NNW 11.4 mph 19 mph 55% 0 in 0 W/m2
04:44 64.9 °F 48.4 °F 29.4 in NNW 9.8 mph 19 mph 55% 0 in 0 W/m2
05:01 64.2 °F 48.2 °F 29.4 in NNW 6.9 mph 19 mph 56% 0 in 0 W/m2
05:06 64.2 °F 48.2 °F 29.4 in NNW 14.5 mph 19 mph 56% 0 in 0 W/m2
05:11 63.9 °F 48.4 °F 29.4 in NNW 10.7 mph 19 mph 57% 0 in 0 W/m2
05:16 63.7 °F 48.2 °F 29.4 in NNW 11.4 mph 19 mph 57% 0 in 0 W/m2
05:21 63.7 °F 48.2 °F 29.4 in NNW 8.3 mph 17.4 mph 57% 0 in 0 W/m2
05:26 63.5 °F 48 °F 29.4 in NNW 6.9 mph 14.5 mph 57% 0 in 0 W/m2
05:31 63.5 °F 48 °F 29.4 in NNW 6.9 mph 15.2 mph 57% 0 in 0 W/m2
05:36 64 °F 48 °F 29.4 in NNW 9.2 mph 22.8 mph 56% 0 in 0 W/m2
05:41 64 °F 48 °F 29.4 in NW 2.2 mph 22.8 mph 56% 0 in 0 W/m2
05:46 63.9 °F 47.8 °F 29.4 in NW 5.4 mph 14.5 mph 56% 0 in 0 W/m2
05:51 64 °F 48 °F 29.4 in NW 6.9 mph 19 mph 56% 0 in 0 W/m2
05:56 64.4 °F 48.4 °F 29.4 in NNW 5.4 mph 19 mph 56% 0 in 0 W/m2
06:01 63.7 °F 47.7 °F 29.4 in NW 6.9 mph 13 mph 56% 0 in 0 W/m2
06:06 63.7 °F 48.2 °F 29.4 in NNW 6.9 mph 13.6 mph 57% 0 in 0 W/m2
06:11 63.5 °F 48.6 °F 29.4 in NNW 6 mph 14.5 mph 58% 0 in 0 W/m2
06:16 63 °F 48.4 °F 29.4 in NNW 5.4 mph 14.5 mph 59% 0 in 0 W/m2
06:21 63.1 °F 48.6 °F 29.4 in NNW 6 mph 13 mph 59% 0 in 0 W/m2
06:26 63.1 °F 48.9 °F 29.4 in NNW 9.8 mph 13 mph 60% 0 in 0 W/m2
06:31 63.1 °F 48.9 °F 29.4 in NNW 6 mph 11.4 mph 60% 0 in 0 W/m2
06:36 63.5 °F 49.5 °F 29.4 in NNW 5.4 mph 10.7 mph 60% 0 in 0 W/m2
06:41 63 °F 49.3 °F 29.4 in NNW 4.5 mph 13.6 mph 61% 0 in 0 W/m2
06:46 62.8 °F 49.1 °F 29.4 in NNW 4.5 mph 13.6 mph 61% 0 in 0 W/m2
06:51 63.3 °F 48.7 °F 29.4 in NNW 8.3 mph 16.8 mph 59% 0 in 0 W/m2
06:56 63.1 °F 48.6 °F 29.4 in NNW 5.4 mph 16.8 mph 59% 0 in 0 W/m2
07:01 63.1 °F 48.9 °F 29.4 in NNW 6.9 mph 13 mph 60% 0 in 0 W/m2
07:06 63.1 °F 48.9 °F 29.4 in NNW 6 mph 13 mph 60% 0 in 0 W/m2
07:11 63 °F 48.9 °F 29.4 in NNW 8.3 mph 13 mph 60% 0 in 0 W/m2
07:16 62.4 °F 48.4 °F 29.4 in North 7.6 mph 15.2 mph 60% 0 in 0 W/m2
07:21 63.3 °F 47.8 °F 29.4 in NNW 15.2 mph 19.7 mph 57% 0 in 0 W/m2
07:26 63.5 °F 47.5 °F 29.4 in NNW 9.2 mph 25.1 mph 56% 0 in 0 W/m2
07:31 63.5 °F 47.5 °F 29.4 in NNW 7.6 mph 25.1 mph 56% 0 in 0 W/m2
07:36 62.8 °F 46.9 °F 29.4 in NW 10.7 mph 19 mph 56% 0 in 0 W/m2
07:41 63.5 °F 47.5 °F 29.4 in NW 7.6 mph 18.3 mph 56% 0 in 0 W/m2
07:46 63.3 °F 47.8 °F 29.4 in NW 9.2 mph 18.3 mph 57% 0 in 0 W/m2
07:51 63.3 °F 47.8 °F 29.4 in NW 6 mph 19 mph 57% 0 in 0 W/m2
07:56 63 °F 47.5 °F 29.4 in NW 9.8 mph 19 mph 57% 0 in 0 W/m2
08:01 63.3 °F 47.8 °F 29.4 in NNW 7.6 mph 16.8 mph 57% 0 in 0 W/m2
08:06 63.3 °F 47.8 °F 29.4 in NNW 9.2 mph 17.4 mph 57% 0 in 0 W/m2
08:11 63.3 °F 47.8 °F 29.4 in NNW 6.9 mph 17.4 mph 57% 0 in 0 W/m2
08:16 63.3 °F 47.8 °F 29.4 in NNW 6.9 mph 15.9 mph 57% 0 in 0 W/m2
08:21 63.1 °F 47.7 °F 29.4 in NNW 11.4 mph 18.3 mph 57% 0 in 0 W/m2
08:26 63.1 °F 47.7 °F 29.4 in NNW 10.7 mph 20.6 mph 57% 0 in 0 W/m2
08:31 63.1 °F 47.7 °F 29.4 in NNW 4.5 mph 20.6 mph 57% 0 in 0 W/m2
08:36 63.1 °F 47.7 °F 29.4 in NNW 8.3 mph 14.5 mph 57% 0 in 0 W/m2
08:41 63.1 °F 47.1 °F 29.4 in NNW 9.8 mph 17.4 mph 56% 0 in 0 W/m2
08:46 63.3 °F 47.5 °F 29.4 in NNW 6 mph 17.4 mph 56% 0 in 0 W/m2
08:51 63.3 °F 47.5 °F 29.4 in NW 11.4 mph 19 mph 56% 0 in 0 W/m2
08:56 63.3 °F 47.5 °F 29.4 in NW 9.2 mph 19.7 mph 56% 0 in 0 W/m2
09:01 63.3 °F 47.5 °F 29.4 in NW 6.9 mph 19.7 mph 56% 0 in 0 W/m2
09:06 63.3 °F 47.5 °F 29.4 in NW 4.5 mph 17.4 mph 56% 0 in 0 W/m2
09:11 63.1 °F 47.1 °F 29.4 in NW 6.9 mph 15.9 mph 56% 0 in 0 W/m2
09:16 63.1 °F 47.1 °F 29.4 in NNW 15.9 mph 22.1 mph 56% 0 in 0 W/m2
09:21 63.3 °F 46.9 °F 29.4 in NW 10.7 mph 22.1 mph 55% 0 in 0 W/m2
09:26 63.3 °F 47.5 °F 29.4 in NW 3.8 mph 22.1 mph 56% 0 in 0 W/m2
09:31 63.1 °F 47.1 °F 29.4 in NNW 5.4 mph 15.9 mph 56% 0 in 0 W/m2
09:36 63 °F 46.9 °F 29.4 in NNW 4.5 mph 12.1 mph 56% 0 in 0 W/m2
09:41 63 °F 46.9 °F 29.4 in NW 6.9 mph 12.1 mph 56% 0 in 0 W/m2
09:46 63 °F 46.9 °F 29.4 in NW 5.4 mph 12.1 mph 56% 0 in 0 W/m2
09:51 63 °F 46.9 °F 29.4 in NW 6 mph 9.8 mph 56% 0 in 0 W/m2
09:56 63 °F 46.9 °F 29.4 in NNW 4.5 mph 9.8 mph 56% 0 in 0 W/m2
10:01 62.8 °F 46.9 °F 29.4 in NNW 9.8 mph 15.2 mph 56% 0 in 0 W/m2
10:06 63 °F 46.9 °F 29.4 in NNW 6 mph 16.8 mph 56% 0 in 0 W/m2
10:11 63 °F 46.9 °F 29.4 in NW 11.4 mph 16.8 mph 56% 0 in 0 W/m2
10:16 63.1 °F 47.1 °F 29.4 in NNW 12.1 mph 19 mph 56% 0 in 0 W/m2
10:21 63 °F 47.5 °F 29.4 in NNW 5.4 mph 19 mph 57% 0 in 0 W/m2
10:26 62.8 °F 47.3 °F 29.4 in NNW 9.8 mph 16.8 mph 57% 0 in 0 W/m2
10:31 62.6 °F 47.7 °F 29.4 in NNW 10.7 mph 16.8 mph 58% 0 in 0 W/m2
10:36 62.4 °F 47.8 °F 29.4 in NNW 6.9 mph 14.5 mph 59% 0 in 0 W/m2
10:41 62.2 °F 48.2 °F 29.4 in NW 6.9 mph 14.5 mph 60% 0 in 0 W/m2
10:46 62.2 °F 48.2 °F 29.4 in NW 6.9 mph 15.2 mph 60% 0 in 0 W/m2
10:51 62.2 °F 48.2 °F 29.4 in NW 7.6 mph 15.2 mph 60% 0 in 0 W/m2
10:56 62.1 °F 48.6 °F 29.4 in NNW 9.2 mph 15.2 mph 61% 0 in 0 W/m2
11:01 62.1 °F 48.6 °F 29.4 in NNW 12.1 mph 18.3 mph 61% 0 in 0 W/m2
11:06 62.2 °F 48.6 °F 29.4 in NNW 9.2 mph 19.7 mph 61% 0 in 0 W/m2
11:11 62.1 °F 48.6 °F 29.4 in NNW 12.1 mph 19.7 mph 61% 0 in 0 W/m2
11:16 62.1 °F 48.6 °F 29.4 in NNW 13 mph 17.4 mph 61% 0 in 0 W/m2
11:21 62.1 °F 48.9 °F 29.4 in NNW 5.4 mph 18.3 mph 62% 0 in 0 W/m2
11:26 61.9 °F 48.7 °F 29.4 in NNW 9.2 mph 18.3 mph 62% 0 in 0 W/m2
11:31 61.9 °F 48.7 °F 29.4 in NNW 6.9 mph 15.2 mph 62% 0 in 0 W/m2
11:36 61.9 °F 48.7 °F 29.4 in NNW 7.6 mph 17.4 mph 62% 0 in 0 W/m2
11:41 61.9 °F 48.7 °F 29.4 in North 9.2 mph 19 mph 62% 0 in 0 W/m2
11:46 62.2 °F 48.6 °F 29.4 in NNW 9.2 mph 22.1 mph 61% 0 in 0 W/m2
11:51 62.1 °F 48.6 °F 29.4 in NNW 7.6 mph 22.1 mph 61% 0 in 0 W/m2
11:56 61.9 °F 48.7 °F 29.5 in NNW 3.1 mph 15.9 mph 62% 0 in 0 W/m2
12:01 61.5 °F 48.4 °F 29.5 in NW 6 mph 17.4 mph 62% 0 in 0 W/m2
12:06 61.5 °F 48.4 °F 29.5 in NNW 6 mph 17.4 mph 62% 0 in 1 W/m2
12:11 61.2 °F 48.6 °F 29.5 in NNW 5.4 mph 13.6 mph 63% 0 in 4 W/m2
12:16 61.2 °F 48.6 °F 29.5 in NNW 5.4 mph 12.1 mph 63% 0 in 6 W/m2
12:21 61.3 °F 48.2 °F 29.5 in NNW 5.4 mph 14.5 mph 62% 0 in 10 W/m2
12:26 61.7 °F 48.6 °F 29.5 in NNW 12.1 mph 15.9 mph 62% 0 in 13 W/m2
12:31 62.1 °F 48.6 °F 29.5 in NNW 8.3 mph 15.9 mph 61% 0 in 17 W/m2
12:36 62.1 °F 48.6 °F 29.5 in NNW 11.4 mph 19 mph 61% 0 in 24 W/m2
12:41 62.4 °F 48.7 °F 29.5 in NNW 8.3 mph 19 mph 61% 0 in 42 W/m2
12:46 62.8 °F 48.4 °F 29.5 in NNW 6.9 mph 19 mph 59% 0 in 50 W/m2
12:51 63.1 °F 48 °F 29.5 in NNW 8.3 mph 15.2 mph 58% 0 in 55 W/m2
12:56 63.3 °F 48.4 °F 29.5 in NNW 6 mph 15.2 mph 58% 0 in 63 W/m2
13:01 63.7 °F 48.2 °F 29.5 in NNW 7.6 mph 15.2 mph 57% 0 in 73 W/m2
13:06 63.9 °F 48.4 °F 29.5 in NNW 6.9 mph 13.6 mph 57% 0 in 83 W/m2
13:11 64.2 °F 48.2 °F 29.5 in NNW 6.9 mph 13 mph 56% 0 in 91 W/m2
13:16 64.6 °F 48.6 °F 29.5 in NNW 3.8 mph 13 mph 56% 0 in 104 W/m2
13:21 64.9 °F 48.9 °F 29.5 in NW 6 mph 9.8 mph 56% 0 in 110 W/m2
13:26 65.1 °F 49.1 °F 29.5 in NW 3.1 mph 10.7 mph 56% 0 in 132 W/m2
13:31 65.1 °F 48.6 °F 29.5 in NW 6.9 mph 12.1 mph 55% 0 in 150 W/m2
13:36 65.3 °F 48.7 °F 29.5 in NW 7.6 mph 12.1 mph 55% 0 in 160 W/m2
13:41 65.7 °F 49.1 °F 29.5 in NW 3.8 mph 15.9 mph 55% 0 in 179 W/m2
13:46 66 °F 49.5 °F 29.5 in NW 7.6 mph 15.9 mph 55% 0 in 194 W/m2
13:51 66.2 °F 48.6 °F 29.5 in NW 8.3 mph 18.3 mph 53% 0 in 204 W/m2
13:56 66.6 °F 49.5 °F 29.5 in NW 6 mph 18.3 mph 54% 0 in 233 W/m2
14:01 66.7 °F 48.6 °F 29.5 in NW 7.6 mph 15.2 mph 52% 0 in 271 W/m2
14:06 67.1 °F 49.5 °F 29.5 in NW 7.6 mph 15.9 mph 53% 0 in 303 W/m2
14:11 67.5 °F 48.7 °F 29.5 in NW 12.1 mph 19.7 mph 51% 0 in 353 W/m2
14:16 67.5 °F 48.7 °F 29.5 in NW 6.9 mph 19.7 mph 51% 0 in 370 W/m2
14:21 67.8 °F 49.1 °F 29.5 in NW 4.5 mph 20.6 mph 51% 0 in 389 W/m2
14:26 68.5 °F 48.6 °F 29.5 in NW 10.7 mph 20.6 mph 49% 0 in 290 W/m2
14:31 67.1 °F 48.4 °F 29.5 in NW 9.2 mph 20.6 mph 51% 0 in 350 W/m2
14:36 67.3 °F 49.6 °F 29.5 in NW 8.3 mph 20.6 mph 53% 0 in 421 W/m2
14:41 67.8 °F 49.1 °F 29.5 in NW 9.8 mph 16.8 mph 51% 0 in 451 W/m2
14:46 68.4 °F 48.9 °F 29.5 in NW 6.9 mph 16.8 mph 50% 0 in 396 W/m2
14:51 68.9 °F 48.9 °F 29.5 in NW 8.3 mph 15.2 mph 49% 0 in 401 W/m2
14:56 68.9 °F 48.4 °F 29.5 in NW 11.4 mph 17.4 mph 48% 0 in 490 W/m2
15:01 69.4 °F 48.9 °F 29.5 in NW 6 mph 17.4 mph 48% 0 in 317 W/m2
15:06 68.4 °F 47.8 °F 29.5 in NW 5.4 mph 20.6 mph 48% 0 in 250 W/m2
15:11 67.6 °F 48.9 °F 29.5 in NW 6 mph 20.6 mph 51% 0 in 285 W/m2
15:16 67.6 °F 49.5 °F 29.5 in NW 5.4 mph 15.9 mph 52% 0 in 312 W/m2
15:21 67.6 °F 49.5 °F 29.5 in NW 9.2 mph 16.8 mph 52% 0 in 277 W/m2
15:26 66.9 °F 48.7 °F 29.5 in WNW 11.4 mph 19.7 mph 52% 0 in 287 W/m2
15:31 66.7 °F 49.1 °F 29.5 in WNW 9.8 mph 19.7 mph 53% 0 in 249 W/m2
15:36 66.4 °F 49.3 °F 29.6 in NW 11.4 mph 19.7 mph 54% 0 in 233 W/m2
15:41 66.4 °F 49.3 °F 29.6 in NNW 9.2 mph 19.7 mph 54% 0 in 245 W/m2
15:46 66.4 °F 48.7 °F 29.6 in NW 14.5 mph 17.4 mph 53% 0 in 262 W/m2
15:51 66.7 °F 49.6 °F 29.6 in NW 13 mph 19 mph 54% 0 in 301 W/m2
15:56 67.5 °F 49.8 °F 29.6 in NW 7.6 mph 19 mph 53% 0 in 496 W/m2
16:01 69.1 °F 50.2 °F 29.6 in NW 7.6 mph 19 mph 51% 0 in 425 W/m2
16:06 68.7 °F 48.7 °F 29.6 in NW 6 mph 18.3 mph 49% 0 in 636 W/m2
16:11 69.8 °F 49.3 °F 29.6 in NW 6.9 mph 18.3 mph 48% 0 in 407 W/m2
16:16 69.4 °F 48.9 °F 29.6 in WNW 6.9 mph 15.2 mph 48% 0 in 280 W/m2
16:21 68.4 °F 48.6 °F 29.6 in NW 9.8 mph 15.9 mph 49% 0 in 365 W/m2
16:26 68.4 °F 47.8 °F 29.6 in NNW 8.3 mph 15.9 mph 48% 0 in 379 W/m2
16:31 68.9 °F 48.9 °F 29.6 in NNW 8.3 mph 15.9 mph 49% 0 in 271 W/m2
16:36 69.1 °F 48.6 °F 29.6 in NW 3.8 mph 13 mph 48% 0 in 320 W/m2
16:41 69.4 °F 47.8 °F 29.6 in WNW 4.5 mph 9.8 mph 46% 0 in 291 W/m2
16:46 69.6 °F 47.5 °F 29.6 in WNW 7.6 mph 12.1 mph 45% 0 in 304 W/m2
17:02 69.4 °F 47.1 °F 29.6 in West 10.7 mph 15.2 mph 45% 0 in 300 W/m2
17:07 69.4 °F 47.1 °F 29.6 in WNW 13 mph 18.3 mph 45% 0 in 312 W/m2
17:12 69.4 °F 47.1 °F 29.6 in WNW 3.1 mph 18.3 mph 45% 0 in 329 W/m2
17:17 69.1 °F 46.9 °F 29.6 in WNW 7.6 mph 18.3 mph 45% 0 in 275 W/m2
17:22 68.9 °F 46.8 °F 29.6 in WNW 7.6 mph 16.8 mph 45% 0 in 275 W/m2
17:27 68.9 °F 46 °F 29.6 in NW 10.7 mph 17.4 mph 44% 0 in 247 W/m2
17:32 68.7 °F 46.6 °F 29.6 in NW 3.8 mph 17.4 mph 45% 0 in 224 W/m2
17:37 68.7 °F 46.6 °F 29.6 in WNW 3.8 mph 15.2 mph 45% 0 in 202 W/m2
17:42 68.7 °F 46.6 °F 29.6 in NW 6.9 mph 15.9 mph 45% 0 in 176 W/m2
17:47 68.2 °F 46 °F 29.6 in NW 9.8 mph 15.9 mph 45% 0 in 161 W/m2
17:52 68 °F 46.6 °F 29.6 in WNW 5.4 mph 14.5 mph 46% 0 in 188 W/m2
17:57 68.4 °F 47.5 °F 29.6 in NW 6.9 mph 13 mph 47% 0 in 202 W/m2
18:02 68.2 °F 46.6 °F 29.6 in WNW 6 mph 15.9 mph 46% 0 in 214 W/m2
18:07 67.8 °F 48 °F 29.6 in WNW 5.4 mph 15.9 mph 49% 0 in 207 W/m2
18:12 67.8 °F 48.6 °F 29.6 in West 6 mph 15.2 mph 50% 0 in 236 W/m2
18:17 67.8 °F 48.6 °F 29.6 in WNW 6.9 mph 11.4 mph 50% 0 in 220 W/m2
18:22 67.6 °F 48.9 °F 29.6 in NW 6.9 mph 11.4 mph 51% 0 in 233 W/m2
18:27 67.8 °F 49.6 °F 29.6 in WNW 6.9 mph 11.4 mph 52% 0 in 198 W/m2
18:32 67.5 °F 48.2 °F 29.6 in West 6 mph 12.1 mph 50% 0 in 188 W/m2
18:37 67.1 °F 48.9 °F 29.6 in West 6.9 mph 12.1 mph 52% 0 in 210 W/m2
18:42 66.9 °F 49.8 °F 29.6 in West 2.2 mph 10.7 mph 54% 0 in 221 W/m2
18:47 67.1 °F 50.4 °F 29.6 in West 2.2 mph 10.7 mph 55% 0 in 199 W/m2
18:52 66.9 °F 50.2 °F 29.6 in WSW 4.5 mph 11.4 mph 55% 0 in 191 W/m2
18:57 66.6 °F 50.4 °F 29.6 in West 6 mph 11.4 mph 56% 0 in 174 W/m2
19:02 66 °F 50.7 °F 29.7 in West 9.8 mph 12.1 mph 58% 0 in 161 W/m2
19:07 63.5 °F 55.6 °F 29.7 in SSW 6.9 mph 13.6 mph 75% 0 in 156 W/m2
19:12 62.1 °F 56.5 °F 29.7 in South 10.7 mph 14.5 mph 82% 0 in 263 W/m2
19:17 61.5 °F 56.7 °F 29.7 in SSW 5.4 mph 19 mph 84% 0.01 in 402 W/m2
19:22 61.7 °F 57.2 °F 29.7 in SSW 10.7 mph 19 mph 85% 0.01 in 387 W/m2
19:27 61.3 °F 56.1 °F 29.7 in South 11.4 mph 19 mph 83% 0.01 in 294 W/m2
19:32 61.2 °F 55.9 °F 29.7 in South 9.2 mph 19 mph 83% 0.01 in 207 W/m2
19:37 61 °F 55.8 °F 29.7 in SSW 6.9 mph 15.9 mph 83% 0.01 in 202 W/m2
19:42 61 °F 55.8 °F 29.7 in South 7.6 mph 16.8 mph 83% 0.01 in 240 W/m2
19:48 61.2 °F 55.9 °F 29.7 in South 7.6 mph 17.4 mph 83% 0.01 in 249 W/m2
19:53 61.2 °F 55.9 °F 29.7 in SSW 6.9 mph 18.3 mph 83% 0.01 in 206 W/m2
19:58 61 °F 55.6 °F 29.7 in South 12.1 mph 18.3 mph 82% 0.01 in 209 W/m2
20:03 61 °F 55.8 °F 29.7 in SSW 11.4 mph 16.8 mph 83% 0.01 in 205 W/m2
20:08 60.8 °F 55.2 °F 29.7 in SSW 10.7 mph 18.3 mph 82% 0.01 in 183 W/m2
20:13 60.8 °F 55.2 °F 29.7 in SSW 13 mph 20.6 mph 82% 0.01 in 191 W/m2
20:18 60.8 °F 54.9 °F 29.7 in SW 9.8 mph 20.6 mph 81% 0 in 328 W/m2
20:23 61.3 °F 55.6 °F 29.7 in SSW 11.4 mph 17.4 mph 81% 0 in 359 W/m2
20:28 61.9 °F 55.2 °F 29.7 in South 12.1 mph 16.8 mph 79% 0 in 325 W/m2
20:33 62.2 °F 54.7 °F 29.7 in SSW 7.6 mph 16.8 mph 76% 0 in 297 W/m2
20:38 62.4 °F 54.9 °F 29.7 in SSW 9.8 mph 16.8 mph 76% 0 in 269 W/m2
20:43 62.2 °F 54 °F 29.7 in SSW 8.3 mph 15.2 mph 74% 0 in 284 W/m2
20:48 62.8 °F 53.6 °F 29.7 in SSW 6 mph 15.2 mph 72% 0 in 298 W/m2
20:53 63.5 °F 54 °F 29.7 in SSW 8.3 mph 12.1 mph 71% 0 in 321 W/m2
20:58 63.5 °F 53.6 °F 29.7 in SSW 6.9 mph 13.6 mph 70% 0 in 342 W/m2
21:03 63.9 °F 54 °F 29.7 in SSW 3.8 mph 13.6 mph 70% 0 in 392 W/m2
21:08 64.2 °F 52.5 °F 29.7 in SSW 8.3 mph 13.6 mph 66% 0 in 437 W/m2
21:13 64.2 °F 53.1 °F 29.7 in SSW 8.3 mph 13.6 mph 67% 0 in 326 W/m2
21:18 64.4 °F 52.9 °F 29.7 in SW 6 mph 13.6 mph 66% 0 in 274 W/m2
21:23 64 °F 52.5 °F 29.7 in SSW 6 mph 13.6 mph 66% 0 in 239 W/m2
21:28 64 °F 52.5 °F 29.7 in SSW 4.5 mph 11.4 mph 66% 0 in 296 W/m2
21:33 64.4 °F 53.2 °F 29.7 in SW 6.9 mph 12.1 mph 67% 0 in 216 W/m2
21:38 63.9 °F 53.1 °F 29.7 in SW 7.6 mph 12.1 mph 68% 0 in 235 W/m2
21:43 63.7 °F 52.5 °F 29.7 in SSW 6 mph 11.4 mph 67% 0 in 228 W/m2
21:48 63.5 °F 53.2 °F 29.7 in SSW 7.6 mph 10.7 mph 69% 0 in 170 W/m2
21:53 63.5 °F 53.2 °F 29.7 in SSW 3.1 mph 9.8 mph 69% 0 in 165 W/m2
21:58 63.7 °F 53.8 °F 29.7 in SW 6.9 mph 9.8 mph 70% 0 in 166 W/m2
22:03 63.5 °F 53.2 °F 29.7 in SW 4.5 mph 9.2 mph 69% 0 in 229 W/m2
22:08 64 °F 53.2 °F 29.7 in SW 6.9 mph 9.2 mph 68% 0 in 271 W/m2
22:13 64.4 °F 52.9 °F 29.7 in SW 6 mph 10.7 mph 66% 0 in 336 W/m2
22:18 64.9 °F 52.9 °F 29.7 in SW 7.6 mph 10.7 mph 65% 0 in 392 W/m2
22:23 65.5 °F 53.1 °F 29.7 in SW 6.9 mph 10.7 mph 64% 0 in 386 W/m2
22:28 65.7 °F 52.3 °F 29.7 in SSW 7.6 mph 10.7 mph 62% 0 in 277 W/m2
22:33 64.9 °F 50.7 °F 29.7 in SW 4.5 mph 10.7 mph 60% 0 in 316 W/m2
22:38 64.9 °F 51.6 °F 29.7 in SW 5.4 mph 9.8 mph 62% 0 in 238 W/m2
22:43 64.8 °F 51.4 °F 29.7 in SSW 8.3 mph 10.7 mph 62% 0 in 241 W/m2
22:48 64.4 °F 52 °F 29.7 in SW 3.1 mph 10.7 mph 64% 0 in 222 W/m2
22:53 64.4 °F 52.3 °F 29.7 in SW 6.9 mph 10.7 mph 65% 0 in 190 W/m2
22:58 64.2 °F 51.8 °F 29.8 in SW 3.8 mph 8.3 mph 64% 0 in 184 W/m2
23:03 64.2 °F 51.8 °F 29.7 in SW 3.1 mph 8.3 mph 64% 0 in 226 W/m2
23:08 64.8 °F 52.7 °F 29.7 in SSW 3.8 mph 5.4 mph 65% 0 in 214 W/m2
23:13 65.1 °F 52.7 °F 29.8 in SSW 3.8 mph 6 mph 64% 0 in 164 W/m2
23:18 64.8 °F 52 °F 29.8 in Calm   6 mph 63% 0 in 155 W/m2
23:23 65.3 °F 52.3 °F 29.8 in South 0.7 mph 5.4 mph 63% 0 in 136 W/m2
23:26 65.3 °F 52.9 °F 29.8 in South 1.6 mph 4.5 mph 64% 0 in 121 W/m2
23:31 65.1 °F 52.7 °F 29.8 in SSW 0.7 mph 4.5 mph 64% 0 in 118 W/m2
23:41 64.8 °F 51.4 °F 29.8 in Calm   3.8 mph 62% 0 in 151 W/m2
23:46 65.1 °F 51.4 °F 29.8 in SSE 0.7 mph 3.1 mph 61% 0 in 189 W/m2
23:51 65.7 °F 52.7 °F 29.8 in SE 2.2 mph 3.1 mph 63% 0 in 167 W/m2
23:56 65.7 °F 52.3 °F 29.8 in ESE 1.6 mph 3.1 mph 62% 0 in 177 W/m2
Northern Hawkes Bay. New Zealand Historic Data
Compliments of Weather Underground - 2 mb